sensor_id;sensor_type;location;lat;lon;timestamp;P1;durP1;ratioP1;P2;durP2;ratioP2
6693;SDS011;3384;42.628;23.380;2022-10-16T00:00:41;7.43;;;6.67;;
6693;SDS011;3384;42.628;23.380;2022-10-16T00:03:09;7.80;;;7.30;;
6693;SDS011;3384;42.628;23.380;2022-10-16T00:05:40;8.50;;;7.13;;
6693;SDS011;3384;42.628;23.380;2022-10-16T00:08:08;6.83;;;6.20;;
6693;SDS011;3384;42.628;23.380;2022-10-16T00:10:36;7.10;;;6.70;;
6693;SDS011;3384;42.628;23.380;2022-10-16T00:13:03;7.10;;;6.40;;
6693;SDS011;3384;42.628;23.380;2022-10-16T00:15:33;8.00;;;6.30;;
6693;SDS011;3384;42.628;23.380;2022-10-16T00:18:02;9.63;;;6.60;;
6693;SDS011;3384;42.628;23.380;2022-10-16T00:20:29;6.53;;;5.93;;
6693;SDS011;3384;42.628;23.380;2022-10-16T00:22:58;8.90;;;7.07;;
6693;SDS011;3384;42.628;23.380;2022-10-16T00:25:25;6.90;;;6.40;;
6693;SDS011;3384;42.628;23.380;2022-10-16T00:27:52;10.90;;;7.47;;
6693;SDS011;3384;42.628;23.380;2022-10-16T00:30:19;8.17;;;7.37;;
6693;SDS011;3384;42.628;23.380;2022-10-16T00:32:47;8.53;;;7.70;;
6693;SDS011;3384;42.628;23.380;2022-10-16T00:35:14;9.23;;;8.43;;
6693;SDS011;3384;42.628;23.380;2022-10-16T00:37:40;7.43;;;6.80;;
6693;SDS011;3384;42.628;23.380;2022-10-16T00:40:07;14.20;;;6.50;;
6693;SDS011;3384;42.628;23.380;2022-10-16T00:42:35;14.83;;;5.83;;
6693;SDS011;3384;42.628;23.380;2022-10-16T00:45:02;7.20;;;6.53;;
6693;SDS011;3384;42.628;23.380;2022-10-16T00:47:31;5.70;;;5.50;;
6693;SDS011;3384;42.628;23.380;2022-10-16T00:50:04;5.93;;;5.53;;
6693;SDS011;3384;42.628;23.380;2022-10-16T00:52:34;6.80;;;5.43;;
6693;SDS011;3384;42.628;23.380;2022-10-16T00:55:01;6.33;;;4.93;;
6693;SDS011;3384;42.628;23.380;2022-10-16T00:57:30;4.57;;;4.37;;
6693;SDS011;3384;42.628;23.380;2022-10-16T00:59:57;4.40;;;3.97;;
6693;SDS011;3384;42.628;23.380;2022-10-16T01:02:24;4.83;;;4.60;;
6693;SDS011;3384;42.628;23.380;2022-10-16T01:04:52;10.83;;;4.67;;
6693;SDS011;3384;42.628;23.380;2022-10-16T01:07:26;6.17;;;4.30;;
6693;SDS011;3384;42.628;23.380;2022-10-16T01:10:03;4.13;;;3.93;;
6693;SDS011;3384;42.628;23.380;2022-10-16T01:12:38;4.40;;;4.10;;
6693;SDS011;3384;42.628;23.380;2022-10-16T01:15:10;5.33;;;5.03;;
6693;SDS011;3384;42.628;23.380;2022-10-16T01:17:45;4.77;;;4.47;;
6693;SDS011;3384;42.628;23.380;2022-10-16T01:20:19;5.37;;;4.87;;
6693;SDS011;3384;42.628;23.380;2022-10-16T01:26:04;4.53;;;4.17;;
6693;SDS011;3384;42.628;23.380;2022-10-16T01:28:51;4.93;;;4.53;;
6693;SDS011;3384;42.628;23.380;2022-10-16T01:31:23;4.80;;;4.50;;
6693;SDS011;3384;42.628;23.380;2022-10-16T01:36:40;5.77;;;3.63;;
6693;SDS011;3384;42.628;23.380;2022-10-16T01:39:11;9.03;;;6.40;;
6693;SDS011;3384;42.628;23.380;2022-10-16T01:41:41;5.50;;;4.07;;
6693;SDS011;3384;42.628;23.380;2022-10-16T01:44:13;10.57;;;4.47;;
6693;SDS011;3384;42.628;23.380;2022-10-16T01:46:46;4.20;;;3.97;;
6693;SDS011;3384;42.628;23.380;2022-10-16T01:49:14;3.90;;;3.60;;
6693;SDS011;3384;42.628;23.380;2022-10-16T01:51:44;4.80;;;4.50;;
6693;SDS011;3384;42.628;23.380;2022-10-16T01:54:14;4.37;;;3.90;;
6693;SDS011;3384;42.628;23.380;2022-10-16T01:56:45;5.27;;;4.83;;
6693;SDS011;3384;42.628;23.380;2022-10-16T01:59:14;13.50;;;5.10;;
6693;SDS011;3384;42.628;23.380;2022-10-16T02:01:45;5.33;;;3.60;;
6693;SDS011;3384;42.628;23.380;2022-10-16T02:04:15;3.97;;;3.87;;
6693;SDS011;3384;42.628;23.380;2022-10-16T02:06:45;4.63;;;4.43;;
6693;SDS011;3384;42.628;23.380;2022-10-16T02:09:12;3.90;;;3.70;;
6693;SDS011;3384;42.628;23.380;2022-10-16T02:11:40;5.03;;;4.67;;
6693;SDS011;3384;42.628;23.380;2022-10-16T02:14:07;4.00;;;3.80;;
6693;SDS011;3384;42.628;23.380;2022-10-16T02:16:36;4.50;;;4.30;;
6693;SDS011;3384;42.628;23.380;2022-10-16T02:19:05;3.97;;;3.60;;
6693;SDS011;3384;42.628;23.380;2022-10-16T02:21:34;5.37;;;5.00;;
6693;SDS011;3384;42.628;23.380;2022-10-16T02:24:10;4.43;;;3.23;;
6693;SDS011;3384;42.628;23.380;2022-10-16T02:26:45;7.13;;;3.53;;
6693;SDS011;3384;42.628;23.380;2022-10-16T02:29:18;4.37;;;4.17;;
6693;SDS011;3384;42.628;23.380;2022-10-16T02:31:52;5.17;;;4.87;;
6693;SDS011;3384;42.628;23.380;2022-10-16T02:34:22;4.30;;;4.20;;
6693;SDS011;3384;42.628;23.380;2022-10-16T02:36:51;5.17;;;4.20;;
6693;SDS011;3384;42.628;23.380;2022-10-16T02:39:19;4.60;;;4.30;;
6693;SDS011;3384;42.628;23.380;2022-10-16T02:41:47;4.67;;;4.47;;
6693;SDS011;3384;42.628;23.380;2022-10-16T02:44:14;5.10;;;4.90;;
6693;SDS011;3384;42.628;23.380;2022-10-16T02:46:41;4.70;;;4.50;;
6693;SDS011;3384;42.628;23.380;2022-10-16T02:49:09;5.30;;;4.90;;
6693;SDS011;3384;42.628;23.380;2022-10-16T02:51:35;5.20;;;4.90;;
6693;SDS011;3384;42.628;23.380;2022-10-16T02:54:02;5.83;;;5.43;;
6693;SDS011;3384;42.628;23.380;2022-10-16T02:56:30;5.03;;;4.57;;
6693;SDS011;3384;42.628;23.380;2022-10-16T02:58:56;5.47;;;5.17;;
6693;SDS011;3384;42.628;23.380;2022-10-16T03:01:23;4.87;;;4.40;;
6693;SDS011;3384;42.628;23.380;2022-10-16T03:03:50;5.40;;;4.97;;
6693;SDS011;3384;42.628;23.380;2022-10-16T03:06:18;9.23;;;5.40;;
6693;SDS011;3384;42.628;23.380;2022-10-16T03:08:45;5.97;;;5.33;;
6693;SDS011;3384;42.628;23.380;2022-10-16T03:11:12;5.53;;;5.13;;
6693;SDS011;3384;42.628;23.380;2022-10-16T03:13:38;5.03;;;4.70;;
6693;SDS011;3384;42.628;23.380;2022-10-16T03:16:05;6.07;;;5.77;;
6693;SDS011;3384;42.628;23.380;2022-10-16T03:18:32;4.70;;;4.33;;
6693;SDS011;3384;42.628;23.380;2022-10-16T03:20:59;5.77;;;5.37;;
6693;SDS011;3384;42.628;23.380;2022-10-16T03:23:27;5.77;;;5.43;;
6693;SDS011;3384;42.628;23.380;2022-10-16T03:25:54;6.07;;;5.53;;
6693;SDS011;3384;42.628;23.380;2022-10-16T03:28:20;10.77;;;6.00;;
6693;SDS011;3384;42.628;23.380;2022-10-16T03:30:47;5.90;;;5.50;;
6693;SDS011;3384;42.628;23.380;2022-10-16T03:33:14;13.40;;;6.13;;
6693;SDS011;3384;42.628;23.380;2022-10-16T03:35:41;5.57;;;5.30;;
6693;SDS011;3384;42.628;23.380;2022-10-16T03:38:08;6.63;;;5.97;;
6693;SDS011;3384;42.628;23.380;2022-10-16T03:40:36;10.40;;;5.43;;
6693;SDS011;3384;42.628;23.380;2022-10-16T03:43:03;6.47;;;5.23;;
6693;SDS011;3384;42.628;23.380;2022-10-16T03:45:29;5.67;;;5.03;;
6693;SDS011;3384;42.628;23.380;2022-10-16T03:47:56;5.07;;;4.83;;
6693;SDS011;3384;42.628;23.380;2022-10-16T03:50:23;5.80;;;5.40;;
6693;SDS011;3384;42.628;23.380;2022-10-16T03:52:50;5.70;;;5.30;;
6693;SDS011;3384;42.628;23.380;2022-10-16T03:55:16;5.80;;;5.50;;
6693;SDS011;3384;42.628;23.380;2022-10-16T03:57:45;6.60;;;6.10;;
6693;SDS011;3384;42.628;23.380;2022-10-16T04:00:12;6.10;;;5.50;;
6693;SDS011;3384;42.628;23.380;2022-10-16T04:02:39;6.47;;;5.90;;
6693;SDS011;3384;42.628;23.380;2022-10-16T04:05:06;6.70;;;6.20;;
6693;SDS011;3384;42.628;23.380;2022-10-16T04:07:34;6.53;;;6.13;;
6693;SDS011;3384;42.628;23.380;2022-10-16T04:10:01;7.80;;;7.27;;
6693;SDS011;3384;42.628;23.380;2022-10-16T04:12:28;6.57;;;6.13;;
6693;SDS011;3384;42.628;23.380;2022-10-16T04:14:56;7.07;;;6.13;;
6693;SDS011;3384;42.628;23.380;2022-10-16T04:17:23;6.83;;;6.33;;
6693;SDS011;3384;42.628;23.380;2022-10-16T04:19:49;6.20;;;5.90;;
6693;SDS011;3384;42.628;23.380;2022-10-16T04:22:16;6.67;;;6.17;;
6693;SDS011;3384;42.628;23.380;2022-10-16T04:24:43;7.97;;;6.00;;
6693;SDS011;3384;42.628;23.380;2022-10-16T04:27:10;7.23;;;6.50;;
6693;SDS011;3384;42.628;23.380;2022-10-16T04:29:37;6.23;;;5.80;;
6693;SDS011;3384;42.628;23.380;2022-10-16T04:32:05;6.73;;;6.23;;
6693;SDS011;3384;42.628;23.380;2022-10-16T04:34:34;15.07;;;5.93;;
6693;SDS011;3384;42.628;23.380;2022-10-16T04:37:01;7.33;;;6.77;;
6693;SDS011;3384;42.628;23.380;2022-10-16T04:39:28;7.20;;;6.70;;
6693;SDS011;3384;42.628;23.380;2022-10-16T04:41:55;7.20;;;6.57;;
6693;SDS011;3384;42.628;23.380;2022-10-16T04:44:21;12.10;;;6.70;;
6693;SDS011;3384;42.628;23.380;2022-10-16T04:46:49;6.30;;;6.00;;
6693;SDS011;3384;42.628;23.380;2022-10-16T04:49:18;7.47;;;6.57;;
6693;SDS011;3384;42.628;23.380;2022-10-16T04:51:45;5.87;;;5.60;;
6693;SDS011;3384;42.628;23.380;2022-10-16T04:54:11;6.63;;;6.13;;
6693;SDS011;3384;42.628;23.380;2022-10-16T04:56:38;6.57;;;6.20;;
6693;SDS011;3384;42.628;23.380;2022-10-16T04:59:11;8.83;;;6.80;;
6693;SDS011;3384;42.628;23.380;2022-10-16T05:01:39;8.73;;;8.03;;
6693;SDS011;3384;42.628;23.380;2022-10-16T05:04:06;6.60;;;5.93;;
6693;SDS011;3384;42.628;23.380;2022-10-16T05:06:34;10.73;;;7.57;;
6693;SDS011;3384;42.628;23.380;2022-10-16T05:09:01;7.40;;;6.83;;
6693;SDS011;3384;42.628;23.380;2022-10-16T05:11:27;6.33;;;6.03;;
6693;SDS011;3384;42.628;23.380;2022-10-16T05:13:54;10.33;;;6.27;;
6693;SDS011;3384;42.628;23.380;2022-10-16T05:16:21;8.70;;;8.00;;
6693;SDS011;3384;42.628;23.380;2022-10-16T05:18:48;6.03;;;5.73;;
6693;SDS011;3384;42.628;23.380;2022-10-16T05:21:14;7.43;;;6.83;;
6693;SDS011;3384;42.628;23.380;2022-10-16T05:23:43;7.60;;;7.03;;
6693;SDS011;3384;42.628;23.380;2022-10-16T05:26:09;9.17;;;7.63;;
6693;SDS011;3384;42.628;23.380;2022-10-16T05:28:36;11.27;;;5.90;;
6693;SDS011;3384;42.628;23.380;2022-10-16T05:31:06;6.57;;;6.07;;
6693;SDS011;3384;42.628;23.380;2022-10-16T05:33:34;12.00;;;6.40;;
6693;SDS011;3384;42.628;23.380;2022-10-16T05:36:01;8.07;;;7.23;;
6693;SDS011;3384;42.628;23.380;2022-10-16T05:38:28;8.53;;;6.90;;
6693;SDS011;3384;42.628;23.380;2022-10-16T05:40:56;7.90;;;6.60;;
6693;SDS011;3384;42.628;23.380;2022-10-16T05:43:23;7.90;;;5.50;;
6693;SDS011;3384;42.628;23.380;2022-10-16T05:45:53;19.60;;;6.80;;
6693;SDS011;3384;42.628;23.380;2022-10-16T05:48:21;6.13;;;5.73;;
6693;SDS011;3384;42.628;23.380;2022-10-16T05:50:48;9.93;;;8.87;;
6693;SDS011;3384;42.628;23.380;2022-10-16T05:53:22;6.90;;;6.53;;
6693;SDS011;3384;42.628;23.380;2022-10-16T05:55:51;15.60;;;10.97;;
6693;SDS011;3384;42.628;23.380;2022-10-16T05:58:20;6.23;;;5.73;;
6693;SDS011;3384;42.628;23.380;2022-10-16T06:00:52;7.90;;;7.17;;
6693;SDS011;3384;42.628;23.380;2022-10-16T06:03:19;6.50;;;6.27;;
6693;SDS011;3384;42.628;23.380;2022-10-16T06:05:46;12.20;;;9.80;;
6693;SDS011;3384;42.628;23.380;2022-10-16T06:08:13;8.43;;;7.73;;
6693;SDS011;3384;42.628;23.380;2022-10-16T06:10:40;13.20;;;9.53;;
6693;SDS011;3384;42.628;23.380;2022-10-16T06:13:06;5.90;;;5.50;;
6693;SDS011;3384;42.628;23.380;2022-10-16T06:15:35;7.67;;;7.17;;
6693;SDS011;3384;42.628;23.380;2022-10-16T06:18:04;5.37;;;5.07;;
6693;SDS011;3384;42.628;23.380;2022-10-16T06:20:30;13.33;;;10.43;;
6693;SDS011;3384;42.628;23.380;2022-10-16T06:22:57;13.10;;;5.67;;
6693;SDS011;3384;42.628;23.380;2022-10-16T06:25:24;5.30;;;4.90;;
6693;SDS011;3384;42.628;23.380;2022-10-16T06:27:51;5.23;;;5.00;;
6693;SDS011;3384;42.628;23.380;2022-10-16T06:30:17;6.17;;;5.57;;
6693;SDS011;3384;42.628;23.380;2022-10-16T06:32:45;6.23;;;5.63;;
6693;SDS011;3384;42.628;23.380;2022-10-16T06:35:12;5.97;;;5.60;;
6693;SDS011;3384;42.628;23.380;2022-10-16T06:37:39;6.90;;;5.83;;
6693;SDS011;3384;42.628;23.380;2022-10-16T06:40:06;6.63;;;5.80;;
6693;SDS011;3384;42.628;23.380;2022-10-16T06:42:33;5.20;;;5.00;;
6693;SDS011;3384;42.628;23.380;2022-10-16T06:45:00;5.13;;;4.77;;
6693;SDS011;3384;42.628;23.380;2022-10-16T06:47:27;7.70;;;7.17;;
6693;SDS011;3384;42.628;23.380;2022-10-16T06:49:55;9.77;;;8.60;;
6693;SDS011;3384;42.628;23.380;2022-10-16T06:52:22;5.70;;;5.30;;
6693;SDS011;3384;42.628;23.380;2022-10-16T06:54:49;7.80;;;7.00;;
6693;SDS011;3384;42.628;23.380;2022-10-16T06:57:16;12.93;;;6.90;;
6693;SDS011;3384;42.628;23.380;2022-10-16T06:59:43;6.50;;;5.77;;
6693;SDS011;3384;42.628;23.380;2022-10-16T07:02:10;11.20;;;9.27;;
6693;SDS011;3384;42.628;23.380;2022-10-16T07:04:36;9.30;;;7.70;;
6693;SDS011;3384;42.628;23.380;2022-10-16T07:07:05;14.73;;;9.90;;
6693;SDS011;3384;42.628;23.380;2022-10-16T07:09:31;10.13;;;7.27;;
6693;SDS011;3384;42.628;23.380;2022-10-16T07:11:58;10.13;;;9.13;;
6693;SDS011;3384;42.628;23.380;2022-10-16T07:14:25;8.80;;;7.57;;
6693;SDS011;3384;42.628;23.380;2022-10-16T07:16:52;7.77;;;7.07;;
6693;SDS011;3384;42.628;23.380;2022-10-16T07:19:19;11.13;;;8.40;;
6693;SDS011;3384;42.628;23.380;2022-10-16T07:21:46;9.77;;;8.20;;
6693;SDS011;3384;42.628;23.380;2022-10-16T07:24:15;10.63;;;7.40;;
6693;SDS011;3384;42.628;23.380;2022-10-16T07:26:42;9.67;;;7.40;;
6693;SDS011;3384;42.628;23.380;2022-10-16T07:29:11;11.20;;;8.90;;
6693;SDS011;3384;42.628;23.380;2022-10-16T07:31:39;16.00;;;8.70;;
6693;SDS011;3384;42.628;23.380;2022-10-16T07:34:07;10.67;;;8.80;;
6693;SDS011;3384;42.628;23.380;2022-10-16T07:36:34;11.17;;;8.63;;
6693;SDS011;3384;42.628;23.380;2022-10-16T07:39:01;10.13;;;8.30;;
6693;SDS011;3384;42.628;23.380;2022-10-16T07:41:29;15.77;;;9.80;;
6693;SDS011;3384;42.628;23.380;2022-10-16T07:43:58;10.00;;;8.97;;
6693;SDS011;3384;42.628;23.380;2022-10-16T07:46:26;10.97;;;8.50;;
6693;SDS011;3384;42.628;23.380;2022-10-16T07:48:53;8.20;;;7.60;;
6693;SDS011;3384;42.628;23.380;2022-10-16T07:51:20;14.97;;;8.13;;
6693;SDS011;3384;42.628;23.380;2022-10-16T07:53:48;16.00;;;9.57;;
6693;SDS011;3384;42.628;23.380;2022-10-16T07:56:16;14.97;;;9.43;;
6693;SDS011;3384;42.628;23.380;2022-10-16T07:58:45;9.00;;;8.20;;
6693;SDS011;3384;42.628;23.380;2022-10-16T08:01:15;10.20;;;9.00;;
6693;SDS011;3384;42.628;23.380;2022-10-16T08:03:42;8.23;;;7.63;;
6693;SDS011;3384;42.628;23.380;2022-10-16T08:06:10;9.27;;;7.47;;
6693;SDS011;3384;42.628;23.380;2022-10-16T08:08:37;10.57;;;7.87;;
6693;SDS011;3384;42.628;23.380;2022-10-16T08:11:04;10.77;;;7.53;;
6693;SDS011;3384;42.628;23.380;2022-10-16T08:13:31;13.23;;;6.93;;
6693;SDS011;3384;42.628;23.380;2022-10-16T08:16:00;20.90;;;7.73;;
6693;SDS011;3384;42.628;23.380;2022-10-16T08:18:27;12.67;;;7.40;;
6693;SDS011;3384;42.628;23.380;2022-10-16T08:20:57;6.73;;;6.33;;
6693;SDS011;3384;42.628;23.380;2022-10-16T08:23:25;8.67;;;7.97;;
6693;SDS011;3384;42.628;23.380;2022-10-16T08:25:52;13.40;;;7.43;;
6693;SDS011;3384;42.628;23.380;2022-10-16T08:28:20;9.20;;;7.30;;
6693;SDS011;3384;42.628;23.380;2022-10-16T08:30:47;6.77;;;6.40;;
6693;SDS011;3384;42.628;23.380;2022-10-16T08:33:15;6.60;;;6.20;;
6693;SDS011;3384;42.628;23.380;2022-10-16T08:35:42;6.10;;;5.53;;
6693;SDS011;3384;42.628;23.380;2022-10-16T08:38:09;7.40;;;6.90;;
6693;SDS011;3384;42.628;23.380;2022-10-16T08:40:36;6.60;;;6.10;;
6693;SDS011;3384;42.628;23.380;2022-10-16T08:46:04;5.57;;;5.27;;
6693;SDS011;3384;42.628;23.380;2022-10-16T08:48:45;4.60;;;4.30;;
6693;SDS011;3384;42.628;23.380;2022-10-16T08:51:17;5.63;;;4.27;;
6693;SDS011;3384;42.628;23.380;2022-10-16T08:53:48;3.87;;;3.70;;
6693;SDS011;3384;42.628;23.380;2022-10-16T08:56:18;4.23;;;3.93;;
6693;SDS011;3384;42.628;23.380;2022-10-16T08:58:48;3.87;;;3.57;;
6693;SDS011;3384;42.628;23.380;2022-10-16T09:01:17;3.40;;;3.20;;
6693;SDS011;3384;42.628;23.380;2022-10-16T09:03:54;4.37;;;3.90;;
6693;SDS011;3384;42.628;23.380;2022-10-16T09:06:32;4.63;;;4.23;;
6693;SDS011;3384;42.628;23.380;2022-10-16T09:09:20;7.87;;;7.13;;
6693;SDS011;3384;42.628;23.380;2022-10-16T09:12:04;4.20;;;3.80;;
6693;SDS011;3384;42.628;23.380;2022-10-16T09:14:40;3.13;;;3.00;;
6693;SDS011;3384;42.628;23.380;2022-10-16T09:17:22;4.57;;;4.27;;
6693;SDS011;3384;42.628;23.380;2022-10-16T09:20:00;4.03;;;3.83;;
6693;SDS011;3384;42.628;23.380;2022-10-16T09:22:40;7.37;;;3.97;;
6693;SDS011;3384;42.628;23.380;2022-10-16T09:25:10;3.80;;;3.60;;
6693;SDS011;3384;42.628;23.380;2022-10-16T09:27:38;4.87;;;4.43;;
6693;SDS011;3384;42.628;23.380;2022-10-16T09:30:10;3.27;;;3.07;;
6693;SDS011;3384;42.628;23.380;2022-10-16T09:32:38;7.53;;;4.93;;
6693;SDS011;3384;42.628;23.380;2022-10-16T09:35:10;5.60;;;5.10;;
6693;SDS011;3384;42.628;23.380;2022-10-16T09:37:41;8.33;;;2.93;;
6693;SDS011;3384;42.628;23.380;2022-10-16T09:40:11;3.90;;;3.70;;
6693;SDS011;3384;42.628;23.380;2022-10-16T09:42:39;5.07;;;4.33;;
6693;SDS011;3384;42.628;23.380;2022-10-16T09:45:18;4.20;;;3.30;;
6693;SDS011;3384;42.628;23.380;2022-10-16T09:47:48;4.00;;;3.80;;
6693;SDS011;3384;42.628;23.380;2022-10-16T09:50:22;4.33;;;3.30;;
6693;SDS011;3384;42.628;23.380;2022-10-16T09:53:02;3.50;;;3.30;;
6693;SDS011;3384;42.628;23.380;2022-10-16T09:55:30;3.83;;;3.57;;
6693;SDS011;3384;42.628;23.380;2022-10-16T09:57:57;6.63;;;3.43;;
6693;SDS011;3384;42.628;23.380;2022-10-16T10:00:24;6.60;;;4.30;;
6693;SDS011;3384;42.628;23.380;2022-10-16T10:02:51;3.60;;;3.40;;
6693;SDS011;3384;42.628;23.380;2022-10-16T10:05:22;3.50;;;3.30;;
6693;SDS011;3384;42.628;23.380;2022-10-16T10:07:55;5.17;;;4.87;;
6693;SDS011;3384;42.628;23.380;2022-10-16T10:10:23;3.80;;;3.60;;
6693;SDS011;3384;42.628;23.380;2022-10-16T10:12:52;3.77;;;3.50;;
6693;SDS011;3384;42.628;23.380;2022-10-16T10:15:19;4.17;;;3.83;;
6693;SDS011;3384;42.628;23.380;2022-10-16T10:17:47;6.73;;;3.50;;
6693;SDS011;3384;42.628;23.380;2022-10-16T10:20:23;3.50;;;3.10;;
6693;SDS011;3384;42.628;23.380;2022-10-16T10:22:52;7.50;;;3.43;;
6693;SDS011;3384;42.628;23.380;2022-10-16T10:28:26;4.70;;;3.80;;
6693;SDS011;3384;42.628;23.380;2022-10-16T10:31:08;5.43;;;3.80;;
6693;SDS011;3384;42.628;23.380;2022-10-16T10:33:41;6.33;;;3.87;;
6693;SDS011;3384;42.628;23.380;2022-10-16T10:36:25;3.50;;;3.33;;
6693;SDS011;3384;42.628;23.380;2022-10-16T10:38:56;11.87;;;3.40;;
6693;SDS011;3384;42.628;23.380;2022-10-16T10:44:37;3.50;;;3.30;;
6693;SDS011;3384;42.628;23.380;2022-10-16T10:47:26;7.40;;;3.67;;
6693;SDS011;3384;42.628;23.380;2022-10-16T10:50:02;3.40;;;3.20;;
6693;SDS011;3384;42.628;23.380;2022-10-16T10:52:43;4.23;;;3.83;;
6693;SDS011;3384;42.628;23.380;2022-10-16T10:55:20;3.27;;;3.17;;
6693;SDS011;3384;42.628;23.380;2022-10-16T10:57:59;5.13;;;3.60;;
6693;SDS011;3384;42.628;23.380;2022-10-16T11:00:44;2.87;;;2.77;;
6693;SDS011;3384;42.628;23.380;2022-10-16T11:03:27;6.80;;;2.63;;
6693;SDS011;3384;42.628;23.380;2022-10-16T11:06:04;4.07;;;3.30;;
6693;SDS011;3384;42.628;23.380;2022-10-16T11:08:35;4.60;;;4.30;;
6693;SDS011;3384;42.628;23.380;2022-10-16T11:11:06;3.60;;;2.80;;
6693;SDS011;3384;42.628;23.380;2022-10-16T11:13:39;3.10;;;2.53;;
6693;SDS011;3384;42.628;23.380;2022-10-16T11:16:15;5.70;;;3.00;;
6693;SDS011;3384;42.628;23.380;2022-10-16T11:18:46;2.97;;;2.33;;
6693;SDS011;3384;42.628;23.380;2022-10-16T11:21:19;7.83;;;2.60;;
6693;SDS011;3384;42.628;23.380;2022-10-16T11:23:51;2.57;;;2.33;;
6693;SDS011;3384;42.628;23.380;2022-10-16T11:26:24;2.60;;;2.50;;
6693;SDS011;3384;42.628;23.380;2022-10-16T11:28:54;2.20;;;2.10;;
6693;SDS011;3384;42.628;23.380;2022-10-16T11:31:24;2.10;;;2.00;;
6693;SDS011;3384;42.628;23.380;2022-10-16T11:34:00;1.60;;;1.60;;
6693;SDS011;3384;42.628;23.380;2022-10-16T11:36:33;1.90;;;1.80;;
6693;SDS011;3384;42.628;23.380;2022-10-16T11:39:08;2.43;;;1.80;;
6693;SDS011;3384;42.628;23.380;2022-10-16T11:41:45;3.43;;;2.20;;
6693;SDS011;3384;42.628;23.380;2022-10-16T11:44:21;4.07;;;1.90;;
6693;SDS011;3384;42.628;23.380;2022-10-16T11:47:09;2.10;;;2.00;;
6693;SDS011;3384;42.628;23.380;2022-10-16T11:49:49;1.97;;;1.87;;
6693;SDS011;3384;42.628;23.380;2022-10-16T11:52:20;2.03;;;1.97;;
6693;SDS011;3384;42.628;23.380;2022-10-16T11:54:54;3.00;;;1.80;;
6693;SDS011;3384;42.628;23.380;2022-10-16T11:57:26;16.07;;;2.43;;
6693;SDS011;3384;42.628;23.380;2022-10-16T11:59:58;1.20;;;1.20;;
6693;SDS011;3384;42.628;23.380;2022-10-16T12:02:37;2.23;;;2.13;;
6693;SDS011;3384;42.628;23.380;2022-10-16T12:05:18;3.23;;;3.13;;
6693;SDS011;3384;42.628;23.380;2022-10-16T12:07:53;5.77;;;5.10;;
6693;SDS011;3384;42.628;23.380;2022-10-16T12:10:29;2.50;;;2.40;;
6693;SDS011;3384;42.628;23.380;2022-10-16T12:13:02;2.40;;;2.20;;
6693;SDS011;3384;42.628;23.380;2022-10-16T12:15:30;1.67;;;1.53;;
6693;SDS011;3384;42.628;23.380;2022-10-16T12:17:58;11.17;;;2.20;;
6693;SDS011;3384;42.628;23.380;2022-10-16T12:20:27;4.80;;;1.70;;
6693;SDS011;3384;42.628;23.380;2022-10-16T12:23:01;2.00;;;1.90;;
6693;SDS011;3384;42.628;23.380;2022-10-16T12:25:32;4.33;;;2.50;;
6693;SDS011;3384;42.628;23.380;2022-10-16T12:28:01;2.80;;;1.60;;
6693;SDS011;3384;42.628;23.380;2022-10-16T12:30:31;3.70;;;2.47;;
6693;SDS011;3384;42.628;23.380;2022-10-16T12:33:00;5.93;;;1.80;;
6693;SDS011;3384;42.628;23.380;2022-10-16T12:35:30;1.80;;;1.70;;
6693;SDS011;3384;42.628;23.380;2022-10-16T12:38:05;2.20;;;1.60;;
6693;SDS011;3384;42.628;23.380;2022-10-16T12:40:38;3.17;;;2.47;;
6693;SDS011;3384;42.628;23.380;2022-10-16T12:43:12;2.20;;;1.90;;
6693;SDS011;3384;42.628;23.380;2022-10-16T12:46:01;5.90;;;2.27;;
6693;SDS011;3384;42.628;23.380;2022-10-16T12:48:30;2.30;;;2.20;;
6693;SDS011;3384;42.628;23.380;2022-10-16T12:50:57;2.30;;;2.10;;
6693;SDS011;3384;42.628;23.380;2022-10-16T12:53:36;2.03;;;1.93;;
6693;SDS011;3384;42.628;23.380;2022-10-16T12:56:08;1.90;;;1.90;;
6693;SDS011;3384;42.628;23.380;2022-10-16T12:58:57;3.40;;;1.77;;
6693;SDS011;3384;42.628;23.380;2022-10-16T13:01:41;2.50;;;2.17;;
6693;SDS011;3384;42.628;23.380;2022-10-16T13:04:25;10.03;;;2.20;;
6693;SDS011;3384;42.628;23.380;2022-10-16T13:07:04;3.47;;;3.27;;
6693;SDS011;3384;42.628;23.380;2022-10-16T13:09:49;9.40;;;6.50;;
6693;SDS011;3384;42.628;23.380;2022-10-16T13:12:29;6.93;;;6.33;;
6693;SDS011;3384;42.628;23.380;2022-10-16T13:15:24;2.43;;;2.27;;
6693;SDS011;3384;42.628;23.380;2022-10-16T13:18:02;3.77;;;2.03;;
6693;SDS011;3384;42.628;23.380;2022-10-16T13:20:39;3.70;;;3.50;;
6693;SDS011;3384;42.628;23.380;2022-10-16T13:23:19;5.93;;;3.27;;
6693;SDS011;3384;42.628;23.380;2022-10-16T13:25:56;2.20;;;2.00;;
6693;SDS011;3384;42.628;23.380;2022-10-16T13:28:35;2.70;;;2.50;;
6693;SDS011;3384;42.628;23.380;2022-10-16T13:31:05;8.13;;;2.40;;
6693;SDS011;3384;42.628;23.380;2022-10-16T13:33:39;1.83;;;1.73;;
6693;SDS011;3384;42.628;23.380;2022-10-16T13:36:17;2.37;;;2.27;;
6693;SDS011;3384;42.628;23.380;2022-10-16T13:38:46;13.20;;;2.37;;
6693;SDS011;3384;42.628;23.380;2022-10-16T13:41:14;5.43;;;2.57;;
6693;SDS011;3384;42.628;23.380;2022-10-16T13:43:45;13.77;;;9.63;;
6693;SDS011;3384;42.628;23.380;2022-10-16T13:46:14;9.07;;;3.23;;
6693;SDS011;3384;42.628;23.380;2022-10-16T13:48:43;3.40;;;1.77;;
6693;SDS011;3384;42.628;23.380;2022-10-16T13:51:12;1.77;;;1.67;;
6693;SDS011;3384;42.628;23.380;2022-10-16T13:53:40;2.33;;;2.23;;
6693;SDS011;3384;42.628;23.380;2022-10-16T13:56:09;2.40;;;2.30;;
6693;SDS011;3384;42.628;23.380;2022-10-16T13:58:39;2.67;;;2.50;;
6693;SDS011;3384;42.628;23.380;2022-10-16T14:01:15;5.43;;;2.60;;
6693;SDS011;3384;42.628;23.380;2022-10-16T14:03:44;2.33;;;1.80;;
6693;SDS011;3384;42.628;23.380;2022-10-16T14:06:12;2.87;;;2.63;;
6693;SDS011;3384;42.628;23.380;2022-10-16T14:08:43;3.43;;;2.33;;
6693;SDS011;3384;42.628;23.380;2022-10-16T14:11:12;4.50;;;2.23;;
6693;SDS011;3384;42.628;23.380;2022-10-16T14:13:46;9.13;;;7.13;;
6693;SDS011;3384;42.628;23.380;2022-10-16T14:16:17;5.57;;;5.17;;
6693;SDS011;3384;42.628;23.380;2022-10-16T14:18:50;5.53;;;4.80;;
6693;SDS011;3384;42.628;23.380;2022-10-16T14:21:22;3.90;;;2.87;;
6693;SDS011;3384;42.628;23.380;2022-10-16T14:23:50;5.00;;;4.60;;
6693;SDS011;3384;42.628;23.380;2022-10-16T14:26:18;2.47;;;2.37;;
6693;SDS011;3384;42.628;23.380;2022-10-16T14:28:47;3.00;;;2.87;;
6693;SDS011;3384;42.628;23.380;2022-10-16T14:31:26;2.40;;;2.30;;
6693;SDS011;3384;42.628;23.380;2022-10-16T14:33:55;7.20;;;2.07;;
6693;SDS011;3384;42.628;23.380;2022-10-16T14:36:22;2.03;;;1.93;;
6693;SDS011;3384;42.628;23.380;2022-10-16T14:38:53;4.37;;;3.97;;
6693;SDS011;3384;42.628;23.380;2022-10-16T14:41:27;5.57;;;4.07;;
6693;SDS011;3384;42.628;23.380;2022-10-16T14:43:55;9.20;;;4.00;;
6693;SDS011;3384;42.628;23.380;2022-10-16T14:46:30;2.53;;;2.33;;
6693;SDS011;3384;42.628;23.380;2022-10-16T14:49:00;2.00;;;1.90;;
6693;SDS011;3384;42.628;23.380;2022-10-16T14:51:31;2.33;;;1.83;;
6693;SDS011;3384;42.628;23.380;2022-10-16T14:53:58;4.40;;;2.40;;
6693;SDS011;3384;42.628;23.380;2022-10-16T14:56:25;2.77;;;2.67;;
6693;SDS011;3384;42.628;23.380;2022-10-16T14:58:56;6.53;;;1.47;;
6693;SDS011;3384;42.628;23.380;2022-10-16T15:01:23;5.03;;;2.20;;
6693;SDS011;3384;42.628;23.380;2022-10-16T15:03:52;3.40;;;2.00;;
6693;SDS011;3384;42.628;23.380;2022-10-16T15:06:20;2.97;;;2.60;;
6693;SDS011;3384;42.628;23.380;2022-10-16T15:08:47;5.27;;;2.47;;
6693;SDS011;3384;42.628;23.380;2022-10-16T15:11:14;4.83;;;2.90;;
6693;SDS011;3384;42.628;23.380;2022-10-16T15:13:43;2.37;;;2.27;;
6693;SDS011;3384;42.628;23.380;2022-10-16T15:16:10;2.50;;;2.40;;
6693;SDS011;3384;42.628;23.380;2022-10-16T15:18:38;5.13;;;4.80;;
6693;SDS011;3384;42.628;23.380;2022-10-16T15:21:06;15.07;;;7.53;;
6693;SDS011;3384;42.628;23.380;2022-10-16T15:23:33;8.60;;;5.50;;
6693;SDS011;3384;42.628;23.380;2022-10-16T15:26:00;2.67;;;2.10;;
6693;SDS011;3384;42.628;23.380;2022-10-16T15:28:27;2.23;;;2.13;;
6693;SDS011;3384;42.628;23.380;2022-10-16T15:30:54;3.77;;;3.47;;
6693;SDS011;3384;42.628;23.380;2022-10-16T15:33:23;3.87;;;3.67;;